Suipacha, Argentina
Current Conditions -  °F | °C
As of 11:00 PM on Thursday 18 Dec 2014 (Local Time) from SAEZ Reporting Station
Clear Clear  
Wind Chill: 81°   Ceiling: Unl
Heat Index: 81°   Visibility: 6mi
Dew Point: 57°   Wind: 7mph
Humidity: 45%   Direction: 350°N
Pressure: 29.74"   Gusts: NA
Location:  34.75°S, 59.68°W
Report Text: SAEZ 190200Z 35006KT 310V020 CAVOK 27/14 Q1007
Loading
Personal Weather Stations






























Interactive Weather Map New forecast layout! Learn more

10-Day Weather Forecast

Advertisements
Track Severe Weather on mobile